sensor_id;sensor_type;location;lat;lon;timestamp;P1;durP1;ratioP1;P2;durP2;ratioP2
60233;SDS011;49514;43.538;-5.708;2023-11-19T00:00:10;23.85;;;7.43;;
60233;SDS011;49514;43.538;-5.708;2023-11-19T00:02:39;14.60;;;6.57;;
60233;SDS011;49514;43.538;-5.708;2023-11-19T00:05:17;29.52;;;7.18;;
60233;SDS011;49514;43.538;-5.708;2023-11-19T00:07:46;24.45;;;6.85;;
60233;SDS011;49514;43.538;-5.708;2023-11-19T00:10:15;25.67;;;7.85;;
60233;SDS011;49514;43.538;-5.708;2023-11-19T00:12:45;27.48;;;6.90;;
60233;SDS011;49514;43.538;-5.708;2023-11-19T00:15:14;28.30;;;7.40;;
60233;SDS011;49514;43.538;-5.708;2023-11-19T00:17:45;29.52;;;8.25;;
60233;SDS011;49514;43.538;-5.708;2023-11-19T00:20:22;31.85;;;8.60;;
60233;SDS011;49514;43.538;-5.708;2023-11-19T00:22:49;35.45;;;9.88;;
60233;SDS011;49514;43.538;-5.708;2023-11-19T00:25:20;29.13;;;9.75;;
60233;SDS011;49514;43.538;-5.708;2023-11-19T00:27:51;26.27;;;9.35;;
60233;SDS011;49514;43.538;-5.708;2023-11-19T00:30:19;33.72;;;9.85;;
60233;SDS011;49514;43.538;-5.708;2023-11-19T00:32:46;28.38;;;10.15;;
60233;SDS011;49514;43.538;-5.708;2023-11-19T00:35:13;28.33;;;9.68;;
60233;SDS011;49514;43.538;-5.708;2023-11-19T00:37:45;26.88;;;8.20;;
60233;SDS011;49514;43.538;-5.708;2023-11-19T00:40:13;27.63;;;6.85;;
60233;SDS011;49514;43.538;-5.708;2023-11-19T00:42:41;24.77;;;6.75;;
60233;SDS011;49514;43.538;-5.708;2023-11-19T00:45:15;21.17;;;6.47;;
60233;SDS011;49514;43.538;-5.708;2023-11-19T00:47:45;25.27;;;6.68;;
60233;SDS011;49514;43.538;-5.708;2023-11-19T00:50:11;26.98;;;7.50;;
60233;SDS011;49514;43.538;-5.708;2023-11-19T00:52:39;22.85;;;9.00;;
60233;SDS011;49514;43.538;-5.708;2023-11-19T00:55:05;25.60;;;10.70;;
60233;SDS011;49514;43.538;-5.708;2023-11-19T00:57:32;22.02;;;9.95;;
60233;SDS011;49514;43.538;-5.708;2023-11-19T00:59:59;19.73;;;8.75;;
60233;SDS011;49514;43.538;-5.708;2023-11-19T01:02:27;21.15;;;8.85;;
60233;SDS011;49514;43.538;-5.708;2023-11-19T01:04:55;22.70;;;9.02;;
60233;SDS011;49514;43.538;-5.708;2023-11-19T01:07:22;18.15;;;8.60;;
60233;SDS011;49514;43.538;-5.708;2023-11-19T01:09:51;24.67;;;9.65;;
60233;SDS011;49514;43.538;-5.708;2023-11-19T01:12:17;22.60;;;10.20;;
60233;SDS011;49514;43.538;-5.708;2023-11-19T01:14:44;32.97;;;12.45;;
60233;SDS011;49514;43.538;-5.708;2023-11-19T01:17:17;38.00;;;14.02;;
60233;SDS011;49514;43.538;-5.708;2023-11-19T01:19:46;34.17;;;13.73;;
60233;SDS011;49514;43.538;-5.708;2023-11-19T01:22:14;26.60;;;11.50;;
60233;SDS011;49514;43.538;-5.708;2023-11-19T01:24:43;24.13;;;9.98;;
60233;SDS011;49514;43.538;-5.708;2023-11-19T01:27:10;21.25;;;9.15;;
60233;SDS011;49514;43.538;-5.708;2023-11-19T01:29:44;28.80;;;8.83;;
60233;SDS011;49514;43.538;-5.708;2023-11-19T01:32:10;18.42;;;7.00;;
60233;SDS011;49514;43.538;-5.708;2023-11-19T01:34:38;23.33;;;7.43;;
60233;SDS011;49514;43.538;-5.708;2023-11-19T01:37:05;22.23;;;7.68;;
60233;SDS011;49514;43.538;-5.708;2023-11-19T01:39:44;27.88;;;7.45;;
60233;SDS011;49514;43.538;-5.708;2023-11-19T01:42:11;24.30;;;7.68;;
60233;SDS011;49514;43.538;-5.708;2023-11-19T01:44:38;23.50;;;7.40;;
60233;SDS011;49514;43.538;-5.708;2023-11-19T01:47:05;22.80;;;8.43;;
60233;SDS011;49514;43.538;-5.708;2023-11-19T01:49:32;32.03;;;10.55;;
60233;SDS011;49514;43.538;-5.708;2023-11-19T01:51:59;31.95;;;12.57;;
60233;SDS011;49514;43.538;-5.708;2023-11-19T01:54:26;25.75;;;10.43;;
60233;SDS011;49514;43.538;-5.708;2023-11-19T01:56:53;28.15;;;11.23;;
60233;SDS011;49514;43.538;-5.708;2023-11-19T01:59:23;35.33;;;12.40;;
60233;SDS011;49514;43.538;-5.708;2023-11-19T02:01:55;33.67;;;11.38;;
60233;SDS011;49514;43.538;-5.708;2023-11-19T02:04:24;29.60;;;12.33;;
60233;SDS011;49514;43.538;-5.708;2023-11-19T02:06:54;33.67;;;11.30;;
60233;SDS011;49514;43.538;-5.708;2023-11-19T02:09:23;28.27;;;12.13;;
60233;SDS011;49514;43.538;-5.708;2023-11-19T02:11:50;31.02;;;11.82;;
60233;SDS011;49514;43.538;-5.708;2023-11-19T02:14:17;45.45;;;14.88;;
60233;SDS011;49514;43.538;-5.708;2023-11-19T02:16:44;29.63;;;11.90;;
60233;SDS011;49514;43.538;-5.708;2023-11-19T02:19:11;31.02;;;11.85;;
60233;SDS011;49514;43.538;-5.708;2023-11-19T02:21:37;28.17;;;12.10;;
60233;SDS011;49514;43.538;-5.708;2023-11-19T02:24:05;32.33;;;12.13;;
60233;SDS011;49514;43.538;-5.708;2023-11-19T02:26:45;31.52;;;13.75;;
60233;SDS011;49514;43.538;-5.708;2023-11-19T02:29:39;38.93;;;14.03;;
60233;SDS011;49514;43.538;-5.708;2023-11-19T02:32:05;33.33;;;12.55;;
60233;SDS011;49514;43.538;-5.708;2023-11-19T02:34:35;24.60;;;12.15;;
60233;SDS011;49514;43.538;-5.708;2023-11-19T02:37:02;28.95;;;11.77;;
60233;SDS011;49514;43.538;-5.708;2023-11-19T02:39:29;27.67;;;10.73;;
60233;SDS011;49514;43.538;-5.708;2023-11-19T02:41:57;18.02;;;7.82;;
60233;SDS011;49514;43.538;-5.708;2023-11-19T02:44:26;15.38;;;7.63;;
60233;SDS011;49514;43.538;-5.708;2023-11-19T02:46:55;23.40;;;8.82;;
60233;SDS011;49514;43.538;-5.708;2023-11-19T02:49:25;20.10;;;9.80;;
60233;SDS011;49514;43.538;-5.708;2023-11-19T02:51:52;21.40;;;9.35;;
60233;SDS011;49514;43.538;-5.708;2023-11-19T02:54:18;17.95;;;8.27;;
60233;SDS011;49514;43.538;-5.708;2023-11-19T02:56:47;20.73;;;10.38;;
60233;SDS011;49514;43.538;-5.708;2023-11-19T02:59:21;29.70;;;11.20;;
60233;SDS011;49514;43.538;-5.708;2023-11-19T03:01:53;22.58;;;9.10;;
60233;SDS011;49514;43.538;-5.708;2023-11-19T03:04:21;21.10;;;7.80;;
60233;SDS011;49514;43.538;-5.708;2023-11-19T03:06:49;15.25;;;7.60;;
60233;SDS011;49514;43.538;-5.708;2023-11-19T03:09:15;24.75;;;9.50;;
60233;SDS011;49514;43.538;-5.708;2023-11-19T03:11:42;21.27;;;9.52;;
60233;SDS011;49514;43.538;-5.708;2023-11-19T03:14:09;31.83;;;12.10;;
60233;SDS011;49514;43.538;-5.708;2023-11-19T03:16:38;26.75;;;10.52;;
60233;SDS011;49514;43.538;-5.708;2023-11-19T03:19:05;35.10;;;12.63;;
60233;SDS011;49514;43.538;-5.708;2023-11-19T03:21:31;30.63;;;11.80;;
60233;SDS011;49514;43.538;-5.708;2023-11-19T03:23:58;34.72;;;13.10;;
60233;SDS011;49514;43.538;-5.708;2023-11-19T03:26:27;35.22;;;14.18;;
60233;SDS011;49514;43.538;-5.708;2023-11-19T03:28:54;40.13;;;16.33;;
60233;SDS011;49514;43.538;-5.708;2023-11-19T03:31:22;41.97;;;15.80;;
60233;SDS011;49514;43.538;-5.708;2023-11-19T03:33:49;40.60;;;15.68;;
60233;SDS011;49514;43.538;-5.708;2023-11-19T03:36:16;40.83;;;16.25;;
60233;SDS011;49514;43.538;-5.708;2023-11-19T03:38:43;40.78;;;17.00;;
60233;SDS011;49514;43.538;-5.708;2023-11-19T03:41:13;50.85;;;18.60;;
60233;SDS011;49514;43.538;-5.708;2023-11-19T03:43:40;44.58;;;17.88;;
60233;SDS011;49514;43.538;-5.708;2023-11-19T03:46:17;41.97;;;18.13;;
60233;SDS011;49514;43.538;-5.708;2023-11-19T03:48:46;30.35;;;12.90;;
60233;SDS011;49514;43.538;-5.708;2023-11-19T03:51:13;32.53;;;13.30;;
60233;SDS011;49514;43.538;-5.708;2023-11-19T03:53:44;30.38;;;14.68;;
60233;SDS011;49514;43.538;-5.708;2023-11-19T04:20:37;24.37;;;9.97;;
60233;SDS011;49514;43.538;-5.708;2023-11-19T04:23:04;26.98;;;10.20;;
60233;SDS011;49514;43.538;-5.708;2023-11-19T04:25:31;23.48;;;9.25;;
60233;SDS011;49514;43.538;-5.708;2023-11-19T04:27:57;28.10;;;9.00;;
60233;SDS011;49514;43.538;-5.708;2023-11-19T04:30:24;20.45;;;8.80;;
60233;SDS011;49514;43.538;-5.708;2023-11-19T04:32:50;26.63;;;9.45;;
60233;SDS011;49514;43.538;-5.708;2023-11-19T04:35:17;27.35;;;9.18;;
60233;SDS011;49514;43.538;-5.708;2023-11-19T04:37:45;22.10;;;8.95;;
60233;SDS011;49514;43.538;-5.708;2023-11-19T04:40:11;22.88;;;9.65;;
60233;SDS011;49514;43.538;-5.708;2023-11-19T04:42:38;17.20;;;7.53;;
60233;SDS011;49514;43.538;-5.708;2023-11-19T04:45:06;13.63;;;6.57;;
60233;SDS011;49514;43.538;-5.708;2023-11-19T04:47:33;17.05;;;6.63;;
60233;SDS011;49514;43.538;-5.708;2023-11-19T04:50:00;16.67;;;6.38;;
60233;SDS011;49514;43.538;-5.708;2023-11-19T04:52:27;16.45;;;6.40;;
60233;SDS011;49514;43.538;-5.708;2023-11-19T04:54:53;20.33;;;6.32;;
60233;SDS011;49514;43.538;-5.708;2023-11-19T04:57:20;23.25;;;6.72;;
60233;SDS011;49514;43.538;-5.708;2023-11-19T04:59:46;16.90;;;5.80;;
60233;SDS011;49514;43.538;-5.708;2023-11-19T05:02:13;15.98;;;6.13;;
60233;SDS011;49514;43.538;-5.708;2023-11-19T05:04:44;18.25;;;6.43;;
60233;SDS011;49514;43.538;-5.708;2023-11-19T05:07:13;21.65;;;6.53;;
60233;SDS011;49514;43.538;-5.708;2023-11-19T05:09:40;19.98;;;6.63;;
60233;SDS011;49514;43.538;-5.708;2023-11-19T05:12:08;21.27;;;6.45;;
60233;SDS011;49514;43.538;-5.708;2023-11-19T05:14:38;20.38;;;6.95;;
60233;SDS011;49514;43.538;-5.708;2023-11-19T05:17:04;16.55;;;6.50;;
60233;SDS011;49514;43.538;-5.708;2023-11-19T05:19:31;18.27;;;6.90;;
60233;SDS011;49514;43.538;-5.708;2023-11-19T05:21:58;17.58;;;7.03;;
60233;SDS011;49514;43.538;-5.708;2023-11-19T05:24:24;20.13;;;7.65;;
60233;SDS011;49514;43.538;-5.708;2023-11-19T05:26:51;17.58;;;7.90;;
60233;SDS011;49514;43.538;-5.708;2023-11-19T05:29:18;21.27;;;9.20;;
60233;SDS011;49514;43.538;-5.708;2023-11-19T05:31:44;20.05;;;8.65;;
60233;SDS011;49514;43.538;-5.708;2023-11-19T05:34:11;21.90;;;8.52;;
60233;SDS011;49514;43.538;-5.708;2023-11-19T05:36:38;24.45;;;9.00;;
60233;SDS011;49514;43.538;-5.708;2023-11-19T05:39:05;20.80;;;8.35;;
60233;SDS011;49514;43.538;-5.708;2023-11-19T05:41:32;22.13;;;8.65;;
60233;SDS011;49514;43.538;-5.708;2023-11-19T05:43:58;20.35;;;9.68;;
60233;SDS011;49514;43.538;-5.708;2023-11-19T05:46:25;23.35;;;9.70;;
60233;SDS011;49514;43.538;-5.708;2023-11-19T05:48:52;26.40;;;9.07;;
60233;SDS011;49514;43.538;-5.708;2023-11-19T05:51:19;29.40;;;11.00;;
60233;SDS011;49514;43.538;-5.708;2023-11-19T05:53:46;29.83;;;12.25;;
60233;SDS011;49514;43.538;-5.708;2023-11-19T05:56:13;30.90;;;13.10;;
60233;SDS011;49514;43.538;-5.708;2023-11-19T05:58:41;29.17;;;12.45;;
60233;SDS011;49514;43.538;-5.708;2023-11-19T06:01:10;27.95;;;11.88;;
60233;SDS011;49514;43.538;-5.708;2023-11-19T06:03:37;23.35;;;9.57;;
60233;SDS011;49514;43.538;-5.708;2023-11-19T06:06:04;21.55;;;8.27;;
60233;SDS011;49514;43.538;-5.708;2023-11-19T06:08:31;19.80;;;9.00;;
60233;SDS011;49514;43.538;-5.708;2023-11-19T06:10:58;21.58;;;8.80;;
60233;SDS011;49514;43.538;-5.708;2023-11-19T06:13:27;18.37;;;6.93;;
60233;SDS011;49514;43.538;-5.708;2023-11-19T06:15:53;17.25;;;7.25;;
60233;SDS011;49514;43.538;-5.708;2023-11-19T06:18:20;18.00;;;8.35;;
60233;SDS011;49514;43.538;-5.708;2023-11-19T06:20:46;21.93;;;10.07;;
60233;SDS011;49514;43.538;-5.708;2023-11-19T06:23:13;23.52;;;10.30;;
60233;SDS011;49514;43.538;-5.708;2023-11-19T06:25:40;24.10;;;10.65;;
60233;SDS011;49514;43.538;-5.708;2023-11-19T06:28:06;29.37;;;12.40;;
60233;SDS011;49514;43.538;-5.708;2023-11-19T06:30:33;30.60;;;12.05;;
60233;SDS011;49514;43.538;-5.708;2023-11-19T06:32:59;24.42;;;10.55;;
60233;SDS011;49514;43.538;-5.708;2023-11-19T06:35:26;23.10;;;10.02;;
60233;SDS011;49514;43.538;-5.708;2023-11-19T06:37:54;23.67;;;10.43;;
60233;SDS011;49514;43.538;-5.708;2023-11-19T06:40:22;22.25;;;9.27;;
60233;SDS011;49514;43.538;-5.708;2023-11-19T06:42:48;20.07;;;9.37;;
60233;SDS011;49514;43.538;-5.708;2023-11-19T06:45:15;21.05;;;8.10;;
60233;SDS011;49514;43.538;-5.708;2023-11-19T06:47:41;25.37;;;7.43;;
60233;SDS011;49514;43.538;-5.708;2023-11-19T06:50:08;18.60;;;6.70;;
60233;SDS011;49514;43.538;-5.708;2023-11-19T06:52:35;20.05;;;7.03;;
60233;SDS011;49514;43.538;-5.708;2023-11-19T06:55:03;16.92;;;6.38;;
60233;SDS011;49514;43.538;-5.708;2023-11-19T06:57:30;29.10;;;6.85;;
60233;SDS011;49514;43.538;-5.708;2023-11-19T06:59:58;20.42;;;6.72;;
60233;SDS011;49514;43.538;-5.708;2023-11-19T07:02:25;23.73;;;7.07;;
60233;SDS011;49514;43.538;-5.708;2023-11-19T07:04:51;23.88;;;8.15;;
60233;SDS011;49514;43.538;-5.708;2023-11-19T07:07:21;22.58;;;6.13;;
60233;SDS011;49514;43.538;-5.708;2023-11-19T07:09:48;22.20;;;5.25;;
60233;SDS011;49514;43.538;-5.708;2023-11-19T07:12:16;24.92;;;5.18;;
60233;SDS011;49514;43.538;-5.708;2023-11-19T07:14:42;16.98;;;4.45;;
60233;SDS011;49514;43.538;-5.708;2023-11-19T07:17:09;17.50;;;4.33;;
60233;SDS011;49514;43.538;-5.708;2023-11-19T07:19:36;16.97;;;4.33;;
60233;SDS011;49514;43.538;-5.708;2023-11-19T07:22:04;16.07;;;4.20;;
60233;SDS011;49514;43.538;-5.708;2023-11-19T07:24:32;15.53;;;5.07;;
60233;SDS011;49514;43.538;-5.708;2023-11-19T07:26:59;18.47;;;5.60;;
60233;SDS011;49514;43.538;-5.708;2023-11-19T07:29:27;15.13;;;5.13;;
60233;SDS011;49514;43.538;-5.708;2023-11-19T07:31:54;17.70;;;6.10;;
60233;SDS011;49514;43.538;-5.708;2023-11-19T07:34:22;16.63;;;6.63;;
60233;SDS011;49514;43.538;-5.708;2023-11-19T07:36:49;19.10;;;7.53;;
60233;SDS011;49514;43.538;-5.708;2023-11-19T07:39:16;16.15;;;6.80;;
60233;SDS011;49514;43.538;-5.708;2023-11-19T07:41:43;15.70;;;5.43;;
60233;SDS011;49514;43.538;-5.708;2023-11-19T07:44:10;15.85;;;5.70;;
60233;SDS011;49514;43.538;-5.708;2023-11-19T07:46:37;23.85;;;6.22;;
60233;SDS011;49514;43.538;-5.708;2023-11-19T07:49:03;18.67;;;5.78;;
60233;SDS011;49514;43.538;-5.708;2023-11-19T07:51:30;17.88;;;5.97;;
60233;SDS011;49514;43.538;-5.708;2023-11-19T07:53:57;13.25;;;5.05;;
60233;SDS011;49514;43.538;-5.708;2023-11-19T07:56:24;16.42;;;5.90;;
60233;SDS011;49514;43.538;-5.708;2023-11-19T07:58:51;16.38;;;5.97;;
60233;SDS011;49514;43.538;-5.708;2023-11-19T08:01:17;19.25;;;5.43;;
60233;SDS011;49514;43.538;-5.708;2023-11-19T08:03:44;18.43;;;6.80;;
60233;SDS011;49514;43.538;-5.708;2023-11-19T08:06:11;19.95;;;6.28;;
60233;SDS011;49514;43.538;-5.708;2023-11-19T08:08:37;22.73;;;6.90;;
60233;SDS011;49514;43.538;-5.708;2023-11-19T08:11:05;28.48;;;9.52;;
60233;SDS011;49514;43.538;-5.708;2023-11-19T08:13:31;24.08;;;9.38;;
60233;SDS011;49514;43.538;-5.708;2023-11-19T08:15:58;24.20;;;9.13;;
60233;SDS011;49514;43.538;-5.708;2023-11-19T08:18:24;19.98;;;7.25;;
60233;SDS011;49514;43.538;-5.708;2023-11-19T08:20:51;24.47;;;6.40;;
60233;SDS011;49514;43.538;-5.708;2023-11-19T08:23:22;33.67;;;6.10;;
60233;SDS011;49514;43.538;-5.708;2023-11-19T08:25:51;29.30;;;6.17;;
60233;SDS011;49514;43.538;-5.708;2023-11-19T08:28:18;32.30;;;5.30;;
60233;SDS011;49514;43.538;-5.708;2023-11-19T08:30:45;24.60;;;5.30;;
60233;SDS011;49514;43.538;-5.708;2023-11-19T08:33:12;28.25;;;6.03;;
60233;SDS011;49514;43.538;-5.708;2023-11-19T08:35:38;37.70;;;9.30;;
60233;SDS011;49514;43.538;-5.708;2023-11-19T08:38:05;38.83;;;8.50;;
60233;SDS011;49514;43.538;-5.708;2023-11-19T08:40:32;33.08;;;6.78;;
60233;SDS011;49514;43.538;-5.708;2023-11-19T08:42:59;45.77;;;7.40;;
60233;SDS011;49514;43.538;-5.708;2023-11-19T08:45:26;62.58;;;8.27;;
60233;SDS011;49514;43.538;-5.708;2023-11-19T08:47:53;40.28;;;7.72;;
60233;SDS011;49514;43.538;-5.708;2023-11-19T08:50:19;30.83;;;7.82;;
60233;SDS011;49514;43.538;-5.708;2023-11-19T08:52:46;25.27;;;7.82;;
60233;SDS011;49514;43.538;-5.708;2023-11-19T08:55:13;31.48;;;7.63;;
60233;SDS011;49514;43.538;-5.708;2023-11-19T08:57:40;35.97;;;7.13;;
60233;SDS011;49514;43.538;-5.708;2023-11-19T09:00:07;33.78;;;6.32;;
60233;SDS011;49514;43.538;-5.708;2023-11-19T09:02:35;21.47;;;5.00;;
60233;SDS011;49514;43.538;-5.708;2023-11-19T09:05:03;26.55;;;5.78;;
60233;SDS011;49514;43.538;-5.708;2023-11-19T09:07:33;25.48;;;5.60;;
60233;SDS011;49514;43.538;-5.708;2023-11-19T09:09:59;27.00;;;5.22;;
60233;SDS011;49514;43.538;-5.708;2023-11-19T09:12:26;24.98;;;6.90;;
60233;SDS011;49514;43.538;-5.708;2023-11-19T09:14:55;18.33;;;5.53;;
60233;SDS011;49514;43.538;-5.708;2023-11-19T09:17:21;22.55;;;7.82;;
60233;SDS011;49514;43.538;-5.708;2023-11-19T09:19:48;26.03;;;7.83;;
60233;SDS011;49514;43.538;-5.708;2023-11-19T09:22:15;23.85;;;8.65;;
60233;SDS011;49514;43.538;-5.708;2023-11-19T09:24:42;21.80;;;9.03;;
60233;SDS011;49514;43.538;-5.708;2023-11-19T09:27:10;27.23;;;11.32;;
60233;SDS011;49514;43.538;-5.708;2023-11-19T09:29:37;28.50;;;10.93;;
60233;SDS011;49514;43.538;-5.708;2023-11-19T09:32:04;25.73;;;8.55;;
60233;SDS011;49514;43.538;-5.708;2023-11-19T09:34:31;25.08;;;6.70;;
60233;SDS011;49514;43.538;-5.708;2023-11-19T09:36:58;19.92;;;4.45;;
60233;SDS011;49514;43.538;-5.708;2023-11-19T09:39:25;14.57;;;3.63;;
60233;SDS011;49514;43.538;-5.708;2023-11-19T09:41:51;7.03;;;2.65;;
60233;SDS011;49514;43.538;-5.708;2023-11-19T09:44:18;7.78;;;2.40;;
60233;SDS011;49514;43.538;-5.708;2023-11-19T09:46:45;12.60;;;4.63;;
60233;SDS011;49514;43.538;-5.708;2023-11-19T09:49:15;7.47;;;3.13;;
60233;SDS011;49514;43.538;-5.708;2023-11-19T09:51:49;7.82;;;2.60;;
60233;SDS011;49514;43.538;-5.708;2023-11-19T09:54:16;7.57;;;2.55;;
60233;SDS011;49514;43.538;-5.708;2023-11-19T09:56:43;7.23;;;2.17;;
60233;SDS011;49514;43.538;-5.708;2023-11-19T09:59:10;9.07;;;2.70;;
60233;SDS011;49514;43.538;-5.708;2023-11-19T10:01:37;17.10;;;2.80;;
60233;SDS011;49514;43.538;-5.708;2023-11-19T10:04:05;9.00;;;2.90;;
60233;SDS011;49514;43.538;-5.708;2023-11-19T10:06:33;10.13;;;2.60;;
60233;SDS011;49514;43.538;-5.708;2023-11-19T10:09:00;12.47;;;2.93;;
60233;SDS011;49514;43.538;-5.708;2023-11-19T10:11:27;15.87;;;5.30;;
60233;SDS011;49514;43.538;-5.708;2023-11-19T10:13:54;18.75;;;7.25;;
60233;SDS011;49514;43.538;-5.708;2023-11-19T10:16:21;19.60;;;7.15;;
60233;SDS011;49514;43.538;-5.708;2023-11-19T10:18:56;12.20;;;5.30;;
60233;SDS011;49514;43.538;-5.708;2023-11-19T10:21:23;8.23;;;3.47;;
60233;SDS011;49514;43.538;-5.708;2023-11-19T10:26:19;7.95;;;3.17;;
60233;SDS011;49514;43.538;-5.708;2023-11-19T10:28:47;10.35;;;3.65;;
60233;SDS011;49514;43.538;-5.708;2023-11-19T10:31:14;9.63;;;3.70;;
60233;SDS011;49514;43.538;-5.708;2023-11-19T10:33:41;9.07;;;3.27;;
60233;SDS011;49514;43.538;-5.708;2023-11-19T10:36:13;8.10;;;3.00;;
60233;SDS011;49514;43.538;-5.708;2023-11-19T10:38:40;7.75;;;3.28;;
60233;SDS011;49514;43.538;-5.708;2023-11-19T10:41:26;7.00;;;3.03;;
60233;SDS011;49514;43.538;-5.708;2023-11-19T10:43:57;8.47;;;3.00;;
60233;SDS011;49514;43.538;-5.708;2023-11-19T10:46:36;9.23;;;3.53;;
60233;SDS011;49514;43.538;-5.708;2023-11-19T10:49:04;10.23;;;3.70;;
60233;SDS011;49514;43.538;-5.708;2023-11-19T10:51:32;11.57;;;3.53;;
60233;SDS011;49514;43.538;-5.708;2023-11-19T10:54:02;11.67;;;3.57;;
60233;SDS011;49514;43.538;-5.708;2023-11-19T10:56:33;10.82;;;3.80;;
60233;SDS011;49514;43.538;-5.708;2023-11-19T10:59:01;9.97;;;3.67;;
60233;SDS011;49514;43.538;-5.708;2023-11-19T11:01:43;8.80;;;3.50;;
60233;SDS011;49514;43.538;-5.708;2023-11-19T11:04:14;10.10;;;3.17;;
60233;SDS011;49514;43.538;-5.708;2023-11-19T11:06:45;11.30;;;3.47;;
60233;SDS011;49514;43.538;-5.708;2023-11-19T11:09:13;9.23;;;3.47;;
60233;SDS011;49514;43.538;-5.708;2023-11-19T11:11:41;10.30;;;3.60;;
60233;SDS011;49514;43.538;-5.708;2023-11-19T11:14:13;10.20;;;3.65;;
60233;SDS011;49514;43.538;-5.708;2023-11-19T11:16:42;13.50;;;3.80;;
60233;SDS011;49514;43.538;-5.708;2023-11-19T11:19:12;12.80;;;4.00;;
60233;SDS011;49514;43.538;-5.708;2023-11-19T11:21:42;13.03;;;4.10;;
60233;SDS011;49514;43.538;-5.708;2023-11-19T11:27:21;13.82;;;4.18;;
60233;SDS011;49514;43.538;-5.708;2023-11-19T11:32:45;10.15;;;3.80;;
60233;SDS011;49514;43.538;-5.708;2023-11-19T11:38:14;8.10;;;3.50;;
60233;SDS011;49514;43.538;-5.708;2023-11-19T11:40:43;11.57;;;3.45;;
60233;SDS011;49514;43.538;-5.708;2023-11-19T11:49:04;12.40;;;3.77;;
60233;SDS011;49514;43.538;-5.708;2023-11-19T11:52:06;10.45;;;4.22;;
60233;SDS011;49514;43.538;-5.708;2023-11-19T11:54:26;13.98;;;4.30;;
60233;SDS011;49514;43.538;-5.708;2023-11-19T11:57:08;9.55;;;3.55;;
60233;SDS011;49514;43.538;-5.708;2023-11-19T12:02:08;9.18;;;4.07;;
60233;SDS011;49514;43.538;-5.708;2023-11-19T12:04:36;10.32;;;3.80;;
60233;SDS011;49514;43.538;-5.708;2023-11-19T12:07:06;9.43;;;3.20;;
60233;SDS011;49514;43.538;-5.708;2023-11-19T12:09:47;6.30;;;2.75;;
60233;SDS011;49514;43.538;-5.708;2023-11-19T12:12:18;8.70;;;2.30;;
60233;SDS011;49514;43.538;-5.708;2023-11-19T12:15:00;6.25;;;2.53;;
60233;SDS011;49514;43.538;-5.708;2023-11-19T12:19:59;7.33;;;2.40;;
60233;SDS011;49514;43.538;-5.708;2023-11-19T12:22:27;5.75;;;2.10;;
60233;SDS011;49514;43.538;-5.708;2023-11-19T12:24:54;4.30;;;2.00;;
60233;SDS011;49514;43.538;-5.708;2023-11-19T12:27:21;7.18;;;2.00;;
60233;SDS011;49514;43.538;-5.708;2023-11-19T12:29:52;4.27;;;1.93;;
60233;SDS011;49514;43.538;-5.708;2023-11-19T12:32:18;5.10;;;1.60;;
60233;SDS011;49514;43.538;-5.708;2023-11-19T12:34:45;6.85;;;2.00;;
60233;SDS011;49514;43.538;-5.708;2023-11-19T12:37:12;6.57;;;2.10;;
60233;SDS011;49514;43.538;-5.708;2023-11-19T12:39:41;3.70;;;1.73;;
60233;SDS011;49514;43.538;-5.708;2023-11-19T12:42:08;4.45;;;1.70;;
60233;SDS011;49514;43.538;-5.708;2023-11-19T12:44:35;3.53;;;1.60;;
60233;SDS011;49514;43.538;-5.708;2023-11-19T12:47:05;6.97;;;1.80;;
60233;SDS011;49514;43.538;-5.708;2023-11-19T12:49:33;3.90;;;1.50;;
60233;SDS011;49514;43.538;-5.708;2023-11-19T12:52:00;4.22;;;1.58;;
60233;SDS011;49514;43.538;-5.708;2023-11-19T12:54:33;5.05;;;1.45;;
60233;SDS011;49514;43.538;-5.708;2023-11-19T12:57:03;2.67;;;1.38;;
60233;SDS011;49514;43.538;-5.708;2023-11-19T12:59:34;6.75;;;1.70;;
60233;SDS011;49514;43.538;-5.708;2023-11-19T13:02:00;3.80;;;1.40;;
60233;SDS011;49514;43.538;-5.708;2023-11-19T13:04:31;5.37;;;1.80;;
60233;SDS011;49514;43.538;-5.708;2023-11-19T13:07:01;4.80;;;1.73;;
60233;SDS011;49514;43.538;-5.708;2023-11-19T13:09:30;3.37;;;1.37;;
60233;SDS011;49514;43.538;-5.708;2023-11-19T13:11:57;4.05;;;1.20;;
60233;SDS011;49514;43.538;-5.708;2023-11-19T13:14:35;4.78;;;1.50;;
60233;SDS011;49514;43.538;-5.708;2023-11-19T13:17:06;9.05;;;1.58;;
60233;SDS011;49514;43.538;-5.708;2023-11-19T13:19:32;3.45;;;1.42;;
60233;SDS011;49514;43.538;-5.708;2023-11-19T13:21:59;5.90;;;1.58;;
60233;SDS011;49514;43.538;-5.708;2023-11-19T14:50:04;11.43;;;2.30;;
60233;SDS011;49514;43.538;-5.708;2023-11-19T14:52:32;5.53;;;2.38;;
60233;SDS011;49514;43.538;-5.708;2023-11-19T15:02:21;7.60;;;1.55;;
60233;SDS011;49514;43.538;-5.708;2023-11-19T15:07:14;7.55;;;2.10;;
60233;SDS011;49514;43.538;-5.708;2023-11-19T15:09:41;8.52;;;2.55;;
60233;SDS011;49514;43.538;-5.708;2023-11-19T15:12:08;6.13;;;1.58;;
60233;SDS011;49514;43.538;-5.708;2023-11-19T15:14:34;5.88;;;2.28;;
60233;SDS011;49514;43.538;-5.708;2023-11-19T15:17:02;5.50;;;1.60;;
60233;SDS011;49514;43.538;-5.708;2023-11-19T15:19:29;4.28;;;1.42;;
60233;SDS011;49514;43.538;-5.708;2023-11-19T15:24:23;6.63;;;1.90;;
60233;SDS011;49514;43.538;-5.708;2023-11-19T15:26:51;7.20;;;1.60;;
60233;SDS011;49514;43.538;-5.708;2023-11-19T15:29:18;6.65;;;1.55;;
60233;SDS011;49514;43.538;-5.708;2023-11-19T15:31:44;4.68;;;1.30;;
60233;SDS011;49514;43.538;-5.708;2023-11-19T15:34:11;5.45;;;1.52;;
60233;SDS011;49514;43.538;-5.708;2023-11-19T15:36:39;5.38;;;1.38;;
60233;SDS011;49514;43.538;-5.708;2023-11-19T15:39:06;7.05;;;1.65;;
60233;SDS011;49514;43.538;-5.708;2023-11-19T15:41:33;5.72;;;1.60;;
60233;SDS011;49514;43.538;-5.708;2023-11-19T15:44:01;5.55;;;1.38;;
60233;SDS011;49514;43.538;-5.708;2023-11-19T15:46:29;4.50;;;1.48;;
60233;SDS011;49514;43.538;-5.708;2023-11-19T15:48:56;4.30;;;1.55;;
60233;SDS011;49514;43.538;-5.708;2023-11-19T15:51:23;5.47;;;2.60;;
60233;SDS011;49514;43.538;-5.708;2023-11-19T15:53:50;5.28;;;1.70;;
60233;SDS011;49514;43.538;-5.708;2023-11-19T15:56:20;4.70;;;1.50;;
60233;SDS011;49514;43.538;-5.708;2023-11-19T15:58:46;8.93;;;1.75;;
60233;SDS011;49514;43.538;-5.708;2023-11-19T16:01:14;6.75;;;1.73;;
60233;SDS011;49514;43.538;-5.708;2023-11-19T16:03:41;9.70;;;1.90;;
60233;SDS011;49514;43.538;-5.708;2023-11-19T16:06:08;6.25;;;2.03;;
60233;SDS011;49514;43.538;-5.708;2023-11-19T16:08:37;5.32;;;1.83;;
60233;SDS011;49514;43.538;-5.708;2023-11-19T16:11:04;3.60;;;1.42;;
60233;SDS011;49514;43.538;-5.708;2023-11-19T16:13:33;7.18;;;1.58;;
60233;SDS011;49514;43.538;-5.708;2023-11-19T16:16:00;8.88;;;2.45;;
60233;SDS011;49514;43.538;-5.708;2023-11-19T16:18:27;7.60;;;2.00;;
60233;SDS011;49514;43.538;-5.708;2023-11-19T16:20:54;8.32;;;1.98;;
60233;SDS011;49514;43.538;-5.708;2023-11-19T16:23:21;3.67;;;1.63;;
60233;SDS011;49514;43.538;-5.708;2023-11-19T16:25:48;9.43;;;2.10;;
60233;SDS011;49514;43.538;-5.708;2023-11-19T16:28:16;7.22;;;2.22;;
60233;SDS011;49514;43.538;-5.708;2023-11-19T16:30:43;4.97;;;1.70;;
60233;SDS011;49514;43.538;-5.708;2023-11-19T16:33:10;4.95;;;2.00;;
60233;SDS011;49514;43.538;-5.708;2023-11-19T16:35:37;6.97;;;1.92;;
60233;SDS011;49514;43.538;-5.708;2023-11-19T16:38:04;7.05;;;2.22;;
60233;SDS011;49514;43.538;-5.708;2023-11-19T16:40:32;9.45;;;2.63;;
60233;SDS011;49514;43.538;-5.708;2023-11-19T16:43:05;9.00;;;2.47;;
60233;SDS011;49514;43.538;-5.708;2023-11-19T16:45:32;14.65;;;2.80;;
60233;SDS011;49514;43.538;-5.708;2023-11-19T16:48:02;12.90;;;2.30;;
60233;SDS011;49514;43.538;-5.708;2023-11-19T16:50:30;10.43;;;2.75;;
60233;SDS011;49514;43.538;-5.708;2023-11-19T16:52:57;8.32;;;2.45;;